Heartwell, Nebraska
Current Conditions -  °F | °C
As of 8:55 AM on Friday 19 Dec 2014 (Local Time) from KEAR Reporting Station
Overcast Overcast  
Wind Chill: 19°   Ceiling: 200
Heat Index: 27°   Visibility: 0.25mi
Dew Point: 25°   Wind: 7mph
Humidity: 93%   Direction: 190°S
Pressure: 30.14"   Gusts: NA
Location:  40.57°N, 98.79°W
Report Text: KEAR 191455Z 19006KT 1/4SM OVC002 M03/M04 A3014 RMK AO1 52007
Loading
Personal Weather Stations






























Interactive Weather Map New forecast layout! Learn more

10-Day Weather Forecast

Advertisements
Track Severe Weather on mobile